Time;durP1;ratioP1;P1;durP2;ratioP2;P2;SDS_P1;SDS_P2;PMS_P1;PMS_P2;Temp;Humidity;BMP_temperature;BMP_pressure;BME280_temperature;BME280_humidity;BME280_pressure;Samples;Min_cycle;Max_cycle;Signal;HPM_P1;HPM_P2
2021/10/19 00:01:10;;;;;;;10.8;9.8;;;;;;;13.8;72.6;101610;;;;
2021/10/19 00:07:10;;;;;;;10.7;9.7;;;;;;;13.9;72.4;101610;;;;
2021/10/19 00:39:10;;;;;;;10.3;9.4;;;;;;;14.1;73.4;101620;;;;
2021/10/19 00:43:10;;;;;;;10.3;9.4;;;;;;;14.0;73.2;101610;;;;
2021/10/19 00:47:10;;;;;;;10.4;9.3;;;;;;;13.9;74.4;101620;;;;
2021/10/19 00:49:10;;;;;;;10.4;9.3;;;;;;;14.0;73.4;101610;;;;
2021/10/19 00:51:10;;;;;;;10.4;9.3;;;;;;;14.1;74.2;101610;;;;
2021/10/19 00:53:10;;;;;;;10.4;9.3;;;;;;;14.0;73.8;101610;;;;
2021/10/19 00:57:10;;;;;;;10.4;9.3;;;;;;;14.1;74.1;101610;;;;
2021/10/19 01:01:10;;;;;;;10.4;9.3;;;;;;;14.0;74.8;101600;;;;
2021/10/19 01:03:10;;;;;;;10.4;9.3;;;;;;;14.1;74.0;101600;;;;
2021/10/19 01:05:10;;;;;;;10.4;9.3;;;;;;;14.0;74.4;101600;;;;
2021/10/19 01:09:10;;;;;;;10.9;9.9;;;;;;;14.1;75.6;101600;;;;
2021/10/19 01:11:10;;;;;;;10.9;9.9;;;;;;;14.0;74.9;101600;;;;
2021/10/19 01:13:10;;;;;;;10.9;9.9;;;;;;;14.1;74.7;101610;;;;
2021/10/19 01:25:10;;;;;;;10.9;9.9;;;;;;;14.2;75.6;101590;;;;
2021/10/19 01:45:10;;;;;;;11.0;9.6;;;;;;;14.1;75.8;101560;;;;
2021/10/19 01:49:10;;;;;;;10.0;9.0;;;;;;;14.2;76.0;101550;;;;
2021/10/19 02:09:10;;;;;;;11.0;9.9;;;;;;;14.3;78.1;101520;;;;
2021/10/19 02:11:10;;;;;;;11.0;9.9;;;;;;;14.2;77.3;101520;;;;
2021/10/19 02:13:10;;;;;;;11.0;9.9;;;;;;;14.4;78.2;101510;;;;
2021/10/19 02:15:10;;;;;;;11.0;9.9;;;;;;;14.3;78.1;101510;;;;
2021/10/19 02:21:10;;;;;;;11.0;9.9;;;;;;;14.4;78.5;101510;;;;
2021/10/19 02:23:10;;;;;;;11.0;9.9;;;;;;;14.5;79.0;101510;;;;
2021/10/19 02:33:10;;;;;;;11.1;10.2;;;;;;;14.4;78.9;101500;;;;
2021/10/19 02:35:11;;;;;;;11.1;10.2;;;;;;;14.5;79.4;101500;;;;
2021/10/19 02:41:10;;;;;;;11.1;10.2;;;;;;;14.4;79.4;101490;;;;
2021/10/19 02:43:10;;;;;;;11.1;10.2;;;;;;;14.5;80.3;101490;;;;
2021/10/19 02:45:10;;;;;;;11.1;10.2;;;;;;;14.6;79.6;101490;;;;
2021/10/19 02:51:10;;;;;;;10.8;9.8;;;;;;;14.5;80.8;101490;;;;
2021/10/19 03:11:10;;;;;;;12.0;11.0;;;;;;;14.6;80.0;101470;;;;
2021/10/19 03:13:10;;;;;;;12.0;11.0;;;;;;;14.5;80.8;101470;;;;
2021/10/19 03:17:10;;;;;;;12.0;11.0;;;;;;;14.6;79.7;101470;;;;
2021/10/19 03:23:10;;;;;;;12.0;11.0;;;;;;;14.5;81.0;101470;;;;
2021/10/19 03:29:10;;;;;;;12.4;11.2;;;;;;;14.4;81.1;101460;;;;
2021/10/19 03:47:10;;;;;;;11.9;10.8;;;;;;;14.3;82.8;101450;;;;
2021/10/19 03:49:10;;;;;;;11.9;10.8;;;;;;;14.4;82.3;101450;;;;
2021/10/19 03:53:10;;;;;;;11.9;10.8;;;;;;;14.5;81.0;101440;;;;
2021/10/19 03:55:10;;;;;;;11.9;10.8;;;;;;;14.4;81.6;101440;;;;
2021/10/19 03:57:10;;;;;;;11.9;10.8;;;;;;;14.6;81.7;101440;;;;
2021/10/19 03:59:10;;;;;;;11.9;10.8;;;;;;;14.5;81.4;101440;;;;
2021/10/19 04:01:10;;;;;;;11.9;10.8;;;;;;;14.4;81.9;101450;;;;
2021/10/19 04:03:10;;;;;;;11.9;10.8;;;;;;;14.5;81.5;101450;;;;
2021/10/19 04:05:10;;;;;;;12.3;11.2;;;;;;;14.4;82.5;101440;;;;
2021/10/19 04:07:11;;;;;;;12.3;11.2;;;;;;;14.5;82.6;101450;;;;
2021/10/19 04:13:10;;;;;;;12.3;11.2;;;;;;;14.6;81.2;101450;;;;
2021/10/19 04:15:10;;;;;;;12.3;11.2;;;;;;;14.5;81.5;101460;;;;
2021/10/19 04:19:10;;;;;;;12.3;11.2;;;;;;;14.4;82.9;101450;;;;
2021/10/19 04:21:10;;;;;;;12.3;11.2;;;;;;;14.5;82.1;101450;;;;
2021/10/19 04:27:10;;;;;;;11.3;10.2;;;;;;;14.6;82.8;101460;;;;
2021/10/19 04:29:10;;;;;;;11.3;10.2;;;;;;;14.5;81.8;101450;;;;
2021/10/19 04:33:10;;;;;;;11.3;10.2;;;;;;;14.6;82.2;101460;;;;
2021/10/19 04:37:10;;;;;;;11.3;10.2;;;;;;;14.5;81.7;101460;;;;
2021/10/19 04:41:10;;;;;;;11.3;10.2;;;;;;;14.6;82.3;101450;;;;
2021/10/19 04:43:10;;;;;;;11.3;10.2;;;;;;;14.5;81.8;101450;;;;
2021/10/19 04:45:10;;;;;;;12.2;11.0;;;;;;;14.6;81.2;101450;;;;
2021/10/19 04:51:10;;;;;;;12.2;11.0;;;;;;;14.5;81.9;101460;;;;
2021/10/19 04:53:10;;;;;;;12.2;11.0;;;;;;;14.6;82.3;101460;;;;
2021/10/19 05:01:10;;;;;;;12.2;11.0;;;;;;;14.5;82.9;101460;;;;
2021/10/19 05:03:10;;;;;;;12.2;11.0;;;;;;;14.6;82.3;101460;;;;
2021/10/19 05:07:10;;;;;;;12.5;11.2;;;;;;;14.7;81.9;101450;;;;
2021/10/19 05:11:10;;;;;;;12.5;11.2;;;;;;;14.6;81.4;101450;;;;
2021/10/19 05:13:10;;;;;;;12.5;11.2;;;;;;;14.7;83.0;101450;;;;
2021/10/19 05:15:10;;;;;;;12.5;11.2;;;;;;;14.6;82.2;101450;;;;
2021/10/19 05:17:10;;;;;;;12.5;11.2;;;;;;;14.7;82.2;101450;;;;
2021/10/19 05:19:10;;;;;;;12.5;11.2;;;;;;;14.6;82.6;101440;;;;
2021/10/19 05:25:12;;;;;;;12.2;11.1;;;;;;;14.7;82.3;101430;;;;
2021/10/19 05:27:10;;;;;;;12.2;11.1;;;;;;;14.6;82.1;101430;;;;
2021/10/19 05:35:10;;;;;;;12.2;11.1;;;;;;;14.7;82.5;101420;;;;
2021/10/19 05:39:10;;;;;;;12.2;11.1;;;;;;;14.8;83.9;101420;;;;
2021/10/19 05:41:10;;;;;;;12.2;11.1;;;;;;;14.6;82.7;101430;;;;
2021/10/19 05:43:10;;;;;;;12.2;11.1;;;;;;;14.7;83.4;101420;;;;
2021/10/19 05:45:10;;;;;;;13.7;12.5;;;;;;;14.8;83.8;101420;;;;
2021/10/19 05:47:10;;;;;;;13.7;12.5;;;;;;;14.7;83.9;101420;;;;
2021/10/19 05:51:10;;;;;;;13.7;12.5;;;;;;;14.8;83.3;101420;;;;
2021/10/19 05:57:10;;;;;;;13.7;12.5;;;;;;;14.7;83.4;101420;;;;
2021/10/19 06:05:10;;;;;;;14.5;13.3;;;;;;;14.8;83.4;101420;;;;
2021/10/19 06:09:10;;;;;;;14.5;13.3;;;;;;;14.9;84.2;101410;;;;
2021/10/19 06:11:10;;;;;;;14.5;13.3;;;;;;;14.7;84.5;101420;;;;
2021/10/19 06:13:10;;;;;;;14.5;13.3;;;;;;;14.8;84.6;101420;;;;
2021/10/19 06:21:10;;;;;;;14.5;13.3;;;;;;;14.9;84.1;101420;;;;
2021/10/19 06:23:10;;;;;;;14.5;13.3;;;;;;;14.8;84.9;101430;;;;
2021/10/19 06:25:10;;;;;;;14.6;13.4;;;;;;;14.9;84.5;101420;;;;
2021/10/19 06:27:10;;;;;;;14.6;13.4;;;;;;;14.8;84.5;101420;;;;
2021/10/19 06:29:10;;;;;;;14.6;13.4;;;;;;;14.9;84.7;101410;;;;
2021/10/19 06:37:10;;;;;;;14.6;13.4;;;;;;;14.8;84.8;101410;;;;
2021/10/19 06:41:10;;;;;;;14.6;13.4;;;;;;;14.9;85.5;101410;;;;
2021/10/19 06:43:10;;;;;;;14.6;13.4;;;;;;;15.0;85.3;101410;;;;
2021/10/19 06:45:10;;;;;;;15.7;14.2;;;;;;;14.9;85.3;101400;;;;
2021/10/19 06:51:10;;;;;;;15.7;14.2;;;;;;;15.0;85.6;101400;;;;
2021/10/19 06:55:10;;;;;;;15.7;14.2;;;;;;;14.9;85.3;101400;;;;
2021/10/19 06:57:11;;;;;;;15.7;14.2;;;;;;;15.0;85.9;101410;;;;
2021/10/19 06:59:10;;;;;;;15.7;14.2;;;;;;;14.9;86.2;101410;;;;
2021/10/19 07:03:10;;;;;;;15.7;14.2;;;;;;;15.0;86.6;101420;;;;
2021/10/19 07:05:10;;;;;;;17.7;16.0;;;;;;;14.9;86.5;101420;;;;
2021/10/19 07:07:10;;;;;;;17.7;16.0;;;;;;;15.0;86.6;101420;;;;
2021/10/19 07:13:10;;;;;;;17.7;16.0;;;;;;;15.1;85.6;101420;;;;
2021/10/19 07:17:10;;;;;;;17.7;16.0;;;;;;;15.0;86.1;101410;;;;
2021/10/19 07:19:10;;;;;;;17.7;16.0;;;;;;;15.2;86.7;101420;;;;
2021/10/19 07:21:10;;;;;;;17.7;16.0;;;;;;;15.1;87.1;101410;;;;
2021/10/19 07:25:15;;;;;;;17.6;16.1;;;;;;;15.2;86.3;101410;;;;
2021/10/19 07:33:10;;;;;;;17.6;16.1;;;;;;;15.3;87.2;101420;;;;
2021/10/19 07:35:10;;;;;;;17.6;16.1;;;;;;;15.2;86.8;101430;;;;
2021/10/19 07:37:10;;;;;;;17.6;16.1;;;;;;;15.3;87.1;101420;;;;
2021/10/19 07:39:10;;;;;;;17.6;16.1;;;;;;;15.2;87.2;101420;;;;
2021/10/19 07:41:10;;;;;;;17.6;16.1;;;;;;;15.3;87.5;101420;;;;
2021/10/19 07:47:10;;;;;;;15.9;14.5;;;;;;;15.4;86.9;101420;;;;
2021/10/19 07:49:10;;;;;;;15.9;14.5;;;;;;;15.5;86.2;101430;;;;
2021/10/19 07:51:10;;;;;;;15.9;14.5;;;;;;;15.4;86.5;101430;;;;
2021/10/19 08:01:10;;;;;;;15.9;14.5;;;;;;;15.5;87.3;101440;;;;
2021/10/19 08:03:11;;;;;;;15.9;14.5;;;;;;;15.4;87.0;101440;;;;
2021/10/19 08:05:13;;;;;;;15.9;14.5;;;;;;;15.6;87.3;101440;;;;
2021/10/19 08:11:10;;;;;;;15.9;14.5;;;;;;;15.7;87.2;101440;;;;
2021/10/19 08:15:10;;;;;;;15.9;14.5;;;;;;;15.6;87.1;101430;;;;
2021/10/19 08:17:10;;;;;;;15.9;14.5;;;;;;;15.7;87.1;101430;;;;
2021/10/19 08:21:10;;;;;;;15.9;14.5;;;;;;;15.6;87.3;101430;;;;
2021/10/19 08:25:10;;;;;;;14.2;13.1;;;;;;;15.7;87.3;101430;;;;
2021/10/19 08:27:10;;;;;;;14.2;13.1;;;;;;;15.8;86.8;101430;;;;
2021/10/19 08:29:10;;;;;;;14.2;13.1;;;;;;;15.9;86.7;101430;;;;
2021/10/19 08:31:11;;;;;;;14.2;13.1;;;;;;;15.8;87.9;101430;;;;
2021/10/19 08:37:10;;;;;;;14.2;13.1;;;;;;;15.9;87.7;101420;;;;
2021/10/19 08:39:10;;;;;;;14.2;13.1;;;;;;;15.8;87.7;101410;;;;
2021/10/19 08:41:10;;;;;;;14.2;13.1;;;;;;;15.9;87.5;101420;;;;
2021/10/19 08:45:10;;;;;;;12.0;10.9;;;;;;;16.0;87.9;101420;;;;
2021/10/19 08:47:10;;;;;;;12.0;10.9;;;;;;;15.9;88.3;101420;;;;
2021/10/19 08:49:10;;;;;;;12.0;10.9;;;;;;;16.0;87.7;101420;;;;
2021/10/19 09:01:10;;;;;;;12.0;10.9;;;;;;;16.1;88.0;101420;;;;
2021/10/19 09:17:10;;;;;;;10.9;10.1;;;;;;;16.0;88.1;101430;;;;
2021/10/19 09:19:20;;;;;;;10.9;10.1;;;;;;;16.1;88.5;101430;;;;
2021/10/19 09:21:10;;;;;;;10.9;10.1;;;;;;;16.0;89.0;101420;;;;
2021/10/19 09:25:10;;;;;;;10.3;9.6;;;;;;;16.1;88.7;101420;;;;
2021/10/19 09:27:10;;;;;;;10.3;9.6;;;;;;;16.0;88.5;101420;;;;
2021/10/19 09:29:10;;;;;;;10.3;9.6;;;;;;;16.1;88.7;101420;;;;
2021/10/19 09:33:10;;;;;;;10.3;9.6;;;;;;;16.3;88.9;101420;;;;
2021/10/19 09:39:10;;;;;;;10.3;9.6;;;;;;;16.4;88.0;101410;;;;
2021/10/19 09:41:10;;;;;;;10.3;9.6;;;;;;;16.3;88.4;101420;;;;
2021/10/19 09:43:10;;;;;;;10.3;9.6;;;;;;;16.4;88.5;101420;;;;
2021/10/19 09:49:12;;;;;;;8.5;7.9;;;;;;;16.3;88.2;101430;;;;
2021/10/19 09:53:11;;;;;;;8.5;7.9;;;;;;;16.4;88.4;101430;;;;
2021/10/19 09:55:12;;;;;;;8.5;7.9;;;;;;;16.3;88.2;101430;;;;
2021/10/19 09:59:10;;;;;;;8.5;7.9;;;;;;;16.4;88.9;101430;;;;
2021/10/19 10:05:10;;;;;;;10.1;9.3;;;;;;;16.5;88.5;101430;;;;
2021/10/19 10:17:10;;;;;;;10.1;9.3;;;;;;;16.4;89.8;101430;;;;
2021/10/19 10:19:10;;;;;;;10.1;9.3;;;;;;;16.6;89.5;101440;;;;
2021/10/19 10:23:10;;;;;;;10.1;9.3;;;;;;;16.7;89.3;101430;;;;
2021/10/19 10:31:10;;;;;;;10.8;9.8;;;;;;;16.8;89.7;101420;;;;
2021/10/19 10:41:10;;;;;;;10.8;9.8;;;;;;;16.9;89.6;101420;;;;
2021/10/19 10:43:10;;;;;;;10.8;9.8;;;;;;;17.0;88.8;101430;;;;
2021/10/19 10:49:12;;;;;;;12.1;11.0;;;;;;;16.9;88.9;101420;;;;
2021/10/19 10:53:10;;;;;;;12.1;11.0;;;;;;;17.0;89.8;101420;;;;
2021/10/19 10:55:10;;;;;;;12.1;11.0;;;;;;;16.9;89.0;101420;;;;
2021/10/19 10:57:10;;;;;;;12.1;11.0;;;;;;;17.0;89.0;101420;;;;
2021/10/19 11:03:10;;;;;;;12.1;11.0;;;;;;;17.1;89.5;101410;;;;
2021/10/19 11:13:10;;;;;;;13.0;11.9;;;;;;;17.2;89.6;101400;;;;
2021/10/19 11:19:10;;;;;;;13.0;11.9;;;;;;;17.3;88.5;101410;;;;
2021/10/19 11:25:10;;;;;;;14.2;12.8;;;;;;;17.4;89.2;101400;;;;
2021/10/19 11:27:10;;;;;;;14.2;12.8;;;;;;;17.3;89.1;101400;;;;
2021/10/19 11:29:10;;;;;;;14.2;12.8;;;;;;;17.4;88.6;101400;;;;
2021/10/19 11:33:10;;;;;;;14.2;12.8;;;;;;;17.3;89.2;101400;;;;
2021/10/19 11:35:10;;;;;;;14.2;12.8;;;;;;;17.4;89.4;101400;;;;
2021/10/19 11:37:10;;;;;;;14.2;12.8;;;;;;;17.3;89.1;101400;;;;
2021/10/19 11:41:10;;;;;;;14.2;12.8;;;;;;;17.2;89.5;101400;;;;
2021/10/19 11:45:10;;;;;;;16.4;14.8;;;;;;;17.3;89.6;101390;;;;
2021/10/19 11:47:11;;;;;;;16.4;14.8;;;;;;;17.2;89.1;101380;;;;
2021/10/19 11:51:12;;;;;;;16.4;14.8;;;;;;;17.3;90.4;101390;;;;
2021/10/19 11:55:10;;;;;;;16.4;14.8;;;;;;;17.4;89.6;101390;;;;
2021/10/19 12:03:10;;;;;;;16.4;14.8;;;;;;;17.5;89.2;101380;;;;
2021/10/19 12:05:10;;;;;;;15.1;13.7;;;;;;;17.4;89.6;101380;;;;
2021/10/19 12:09:10;;;;;;;15.1;13.7;;;;;;;17.3;90.2;101370;;;;
2021/10/19 12:11:11;;;;;;;15.1;13.7;;;;;;;17.4;90.2;101380;;;;
2021/10/19 12:13:11;;;;;;;15.1;13.7;;;;;;;17.3;89.9;101380;;;;
2021/10/19 12:17:20;;;;;;;15.1;13.7;;;;;;;17.4;89.8;101370;;;;
2021/10/19 12:19:10;;;;;;;15.1;13.7;;;;;;;17.3;89.7;101370;;;;
2021/10/19 12:35:10;;;;;;;14.4;13.0;;;;;;;17.4;89.5;101370;;;;
2021/10/19 12:39:13;;;;;;;14.4;13.0;;;;;;;17.5;89.2;101370;;;;
2021/10/19 12:45:10;;;;;;;17.0;15.4;;;;;;;17.4;89.4;101360;;;;
2021/10/19 12:47:11;;;;;;;17.0;15.4;;;;;;;17.5;89.8;101370;;;;
2021/10/19 12:49:10;;;;;;;17.0;15.4;;;;;;;17.6;89.8;101360;;;;
2021/10/19 12:53:10;;;;;;;17.0;15.4;;;;;;;17.7;89.2;101350;;;;
2021/10/19 12:55:10;;;;;;;17.0;15.4;;;;;;;17.6;89.0;101350;;;;
2021/10/19 12:59:11;;;;;;;17.0;15.4;;;;;;;17.7;88.8;101350;;;;
2021/10/19 13:05:10;;;;;;;20.0;18.0;;;;;;;17.8;87.9;101340;;;;
2021/10/19 13:09:10;;;;;;;20.0;18.0;;;;;;;17.9;88.3;101350;;;;
2021/10/19 13:11:10;;;;;;;20.0;18.0;;;;;;;17.7;88.5;101350;;;;
2021/10/19 13:15:10;;;;;;;20.0;18.0;;;;;;;17.6;88.5;101340;;;;
2021/10/19 13:17:10;;;;;;;20.0;18.0;;;;;;;17.7;88.4;101340;;;;
2021/10/19 13:23:10;;;;;;;20.0;18.0;;;;;;;17.8;88.0;101340;;;;
2021/10/19 13:31:10;;;;;;;18.9;17.0;;;;;;;17.9;88.3;101340;;;;
2021/10/19 13:35:10;;;;;;;18.9;17.0;;;;;;;17.8;87.3;101340;;;;
2021/10/19 13:39:10;;;;;;;18.9;17.0;;;;;;;17.9;88.3;101340;;;;
2021/10/19 13:45:10;;;;;;;19.9;17.9;;;;;;;18.0;87.2;101330;;;;
2021/10/19 13:53:10;;;;;;;19.9;17.9;;;;;;;18.1;87.8;101330;;;;
2021/10/19 13:59:13;;;;;;;19.9;17.9;;;;;;;18.0;87.9;101320;;;;
2021/10/19 14:01:14;;;;;;;19.9;17.9;;;;;;;18.1;87.4;101330;;;;
2021/10/19 14:03:10;;;;;;;19.9;17.9;;;;;;;18.0;88.2;101320;;;;
2021/10/19 14:11:10;;;;;;;20.3;18.3;;;;;;;18.1;88.4;101310;;;;
2021/10/19 14:13:10;;;;;;;20.3;18.3;;;;;;;18.0;88.4;101310;;;;
2021/10/19 14:15:10;;;;;;;20.3;18.3;;;;;;;18.1;88.0;101310;;;;
2021/10/19 14:17:10;;;;;;;20.3;18.3;;;;;;;18.0;88.8;101310;;;;
2021/10/19 14:23:10;;;;;;;20.3;18.3;;;;;;;18.1;88.5;101300;;;;
2021/10/19 14:29:10;;;;;;;19.3;17.4;;;;;;;18.0;89.0;101310;;;;
2021/10/19 14:33:10;;;;;;;19.3;17.4;;;;;;;17.9;89.1;101310;;;;
2021/10/19 14:35:10;;;;;;;19.3;17.4;;;;;;;18.0;88.8;101310;;;;
2021/10/19 14:41:10;;;;;;;19.3;17.4;;;;;;;17.9;89.5;101300;;;;
2021/10/19 14:45:10;;;;;;;18.9;14.7;;;;;;;18.0;89.5;101310;;;;
2021/10/19 14:59:10;;;;;;;18.9;14.7;;;;;;;17.9;88.7;101280;;;;
2021/10/19 15:01:10;;;;;;;18.9;14.7;;;;;;;18.0;88.5;101280;;;;
2021/10/19 15:13:10;;;;;;;15.9;14.3;;;;;;;17.9;88.7;101280;;;;
2021/10/19 15:21:10;;;;;;;15.9;14.3;;;;;;;18.0;88.8;101270;;;;
2021/10/19 15:23:10;;;;;;;15.9;14.3;;;;;;;17.9;88.4;101280;;;;
2021/10/19 15:25:10;;;;;;;19.9;17.9;;;;;;;17.8;88.6;101270;;;;
2021/10/19 15:27:10;;;;;;;19.9;17.9;;;;;;;17.9;89.2;101270;;;;
2021/10/19 15:33:10;;;;;;;19.9;17.9;;;;;;;18.0;88.8;101250;;;;
2021/10/19 15:35:10;;;;;;;19.9;17.9;;;;;;;17.9;88.9;101250;;;;
2021/10/19 15:37:10;;;;;;;19.9;17.9;;;;;;;18.0;88.5;101250;;;;
2021/10/19 15:41:10;;;;;;;19.9;17.9;;;;;;;17.9;88.5;101250;;;;
2021/10/19 15:49:10;;;;;;;18.3;16.3;;;;;;;17.8;88.2;101240;;;;
2021/10/19 15:55:12;;;;;;;18.3;16.3;;;;;;;17.7;88.4;101250;;;;
2021/10/19 15:59:10;;;;;;;18.3;16.3;;;;;;;17.6;89.1;101250;;;;
2021/10/19 16:01:10;;;;;;;18.3;16.3;;;;;;;17.7;88.7;101240;;;;
2021/10/19 16:05:10;;;;;;;13.2;12.0;;;;;;;17.8;88.6;101230;;;;
2021/10/19 16:09:10;;;;;;;13.2;12.0;;;;;;;17.6;89.0;101210;;;;
2021/10/19 16:13:10;;;;;;;13.2;12.0;;;;;;;17.5;89.5;101200;;;;
2021/10/19 16:15:10;;;;;;;13.2;12.0;;;;;;;17.6;89.1;101190;;;;
2021/10/19 16:19:10;;;;;;;13.2;12.0;;;;;;;17.5;88.2;101200;;;;
2021/10/19 16:25:12;;;;;;;13.5;11.6;;;;;;;17.4;88.1;101210;;;;
2021/10/19 16:29:10;;;;;;;13.5;11.6;;;;;;;17.3;88.2;101210;;;;
2021/10/19 16:33:10;;;;;;;13.5;11.6;;;;;;;17.2;88.2;101220;;;;
2021/10/19 16:51:10;;;;;;;15.4;14.0;;;;;;;17.1;88.3;101220;;;;
2021/10/19 16:57:10;;;;;;;15.4;14.0;;;;;;;17.0;88.4;101220;;;;
2021/10/19 17:09:10;;;;;;;14.9;13.4;;;;;;;16.9;88.4;101210;;;;
2021/10/19 17:13:11;;;;;;;14.9;13.4;;;;;;;16.8;88.4;101210;;;;
2021/10/19 17:15:10;;;;;;;14.9;13.4;;;;;;;16.7;88.7;101210;;;;
2021/10/19 17:19:10;;;;;;;14.9;13.4;;;;;;;16.8;88.9;101220;;;;
2021/10/19 17:21:10;;;;;;;14.9;13.4;;;;;;;16.7;88.5;101220;;;;
2021/10/19 17:25:10;;;;;;;15.9;14.3;;;;;;;16.6;88.2;101210;;;;
2021/10/19 17:27:14;;;;;;;15.9;14.3;;;;;;;16.7;88.7;101210;;;;
2021/10/19 17:29:10;;;;;;;15.9;14.3;;;;;;;16.6;88.5;101210;;;;
2021/10/19 17:33:10;;;;;;;15.9;14.3;;;;;;;16.5;88.8;101210;;;;
2021/10/19 17:49:10;;;;;;;17.8;15.9;;;;;;;16.4;88.7;101210;;;;
2021/10/19 17:55:10;;;;;;;17.8;15.9;;;;;;;16.5;88.2;101200;;;;
2021/10/19 17:57:11;;;;;;;17.8;15.9;;;;;;;16.4;88.2;101180;;;;
2021/10/19 17:59:10;;;;;;;17.8;15.9;;;;;;;16.5;88.0;101180;;;;
2021/10/19 18:01:10;;;;;;;17.8;15.9;;;;;;;16.4;87.8;101180;;;;
2021/10/19 18:03:10;;;;;;;16.8;15.1;;;;;;;16.5;87.6;101180;;;;
2021/10/19 18:05:10;;;;;;;16.8;15.1;;;;;;;16.4;87.4;101180;;;;
2021/10/19 18:07:10;;;;;;;16.8;15.1;;;;;;;16.3;87.9;101170;;;;
2021/10/19 18:11:11;;;;;;;16.8;15.1;;;;;;;16.2;88.3;101170;;;;
2021/10/19 18:21:12;;;;;;;16.8;15.1;;;;;;;16.1;87.9;101160;;;;
2021/10/19 18:25:10;;;;;;;16.8;14.7;;;;;;;16.2;87.7;101160;;;;
2021/10/19 18:31:10;;;;;;;16.8;14.7;;;;;;;16.1;87.4;101150;;;;
2021/10/19 18:33:10;;;;;;;16.8;14.7;;;;;;;16.2;87.0;101160;;;;
2021/10/19 18:35:10;;;;;;;16.8;14.7;;;;;;;16.0;87.6;101150;;;;
2021/10/19 18:37:10;;;;;;;16.8;14.7;;;;;;;16.1;87.7;101150;;;;
2021/10/19 18:41:10;;;;;;;16.8;14.7;;;;;;;16.2;86.9;101150;;;;
2021/10/19 18:47:12;;;;;;;15.4;13.9;;;;;;;16.1;86.8;101150;;;;
2021/10/19 19:01:11;;;;;;;15.4;13.9;;;;;;;16.0;86.5;101130;;;;
2021/10/19 19:03:10;;;;;;;15.5;13.9;;;;;;;16.1;86.2;101120;;;;
2021/10/19 19:05:10;;;;;;;15.5;13.9;;;;;;;16.0;86.5;101120;;;;
2021/10/19 19:09:10;;;;;;;15.5;13.9;;;;;;;16.1;86.7;101120;;;;
2021/10/19 19:15:10;;;;;;;15.5;13.9;;;;;;;16.0;86.2;101110;;;;
2021/10/19 19:17:10;;;;;;;15.5;13.9;;;;;;;15.9;86.5;101110;;;;
2021/10/19 19:21:13;;;;;;;15.5;13.9;;;;;;;16.0;86.6;101110;;;;
2021/10/19 19:27:10;;;;;;;14.1;12.6;;;;;;;15.9;86.2;101100;;;;
2021/10/19 19:39:13;;;;;;;14.1;12.6;;;;;;;15.8;86.4;101110;;;;
2021/10/19 19:41:12;;;;;;;14.1;12.6;;;;;;;15.9;86.4;101100;;;;
2021/10/19 19:45:10;;;;;;;13.7;12.4;;;;;;;15.8;86.1;101110;;;;
2021/10/19 19:47:10;;;;;;;13.7;12.4;;;;;;;15.9;86.3;101100;;;;
2021/10/19 19:53:10;;;;;;;13.7;12.4;;;;;;;15.8;86.3;101090;;;;
2021/10/19 19:55:10;;;;;;;13.7;12.4;;;;;;;15.9;86.1;101100;;;;
2021/10/19 20:11:10;;;;;;;13.7;12.3;;;;;;;16.0;85.4;101080;;;;
2021/10/19 20:13:10;;;;;;;13.7;12.3;;;;;;;15.9;85.4;101080;;;;
2021/10/19 20:19:10;;;;;;;13.7;12.3;;;;;;;15.8;85.6;101070;;;;
2021/10/19 20:23:10;;;;;;;12.2;11.1;;;;;;;15.9;85.7;101070;;;;
2021/10/19 20:25:11;;;;;;;12.2;11.1;;;;;;;15.8;85.6;101070;;;;
2021/10/19 20:33:10;;;;;;;12.2;11.1;;;;;;;15.9;84.7;101070;;;;
2021/10/19 20:35:12;;;;;;;12.2;11.1;;;;;;;15.8;84.7;101070;;;;
2021/10/19 20:37:10;;;;;;;12.2;11.1;;;;;;;15.7;84.9;101070;;;;
2021/10/19 20:39:10;;;;;;;12.2;11.1;;;;;;;15.8;85.1;101070;;;;
2021/10/19 20:45:10;;;;;;;11.0;10.0;;;;;;;15.9;84.0;101060;;;;
2021/10/19 20:47:10;;;;;;;11.0;10.0;;;;;;;15.8;84.3;101050;;;;
2021/10/19 20:49:10;;;;;;;11.0;10.0;;;;;;;15.7;84.2;101050;;;;
2021/10/19 20:51:10;;;;;;;11.0;10.0;;;;;;;15.6;84.5;101040;;;;
2021/10/19 20:53:10;;;;;;;11.0;10.0;;;;;;;15.7;84.3;101040;;;;
2021/10/19 20:57:10;;;;;;;11.0;10.0;;;;;;;15.6;84.1;101040;;;;
2021/10/19 21:03:10;;;;;;;9.6;8.6;;;;;;;15.7;83.6;101030;;;;
2021/10/19 21:07:10;;;;;;;9.6;8.6;;;;;;;15.6;83.3;101030;;;;
2021/10/19 21:11:10;;;;;;;9.6;8.6;;;;;;;15.7;83.1;101030;;;;
2021/10/19 21:13:10;;;;;;;9.6;8.6;;;;;;;15.6;83.2;101030;;;;
2021/10/19 21:19:10;;;;;;;9.6;8.6;;;;;;;15.5;83.4;101040;;;;
2021/10/19 21:23:12;;;;;;;8.6;7.7;;;;;;;15.6;82.8;101030;;;;
2021/10/19 21:25:10;;;;;;;8.6;7.7;;;;;;;15.4;82.9;101030;;;;
2021/10/19 21:27:10;;;;;;;8.6;7.7;;;;;;;15.5;82.5;101030;;;;
2021/10/19 21:29:10;;;;;;;8.6;7.7;;;;;;;15.4;82.6;101020;;;;
2021/10/19 21:35:10;;;;;;;8.6;7.7;;;;;;;15.3;82.8;101020;;;;
2021/10/19 21:39:10;;;;;;;8.6;7.7;;;;;;;15.4;82.3;101010;;;;
2021/10/19 21:41:12;;;;;;;8.6;7.7;;;;;;;15.3;82.4;101010;;;;
2021/10/19 21:43:10;;;;;;;7.8;7.0;;;;;;;15.4;82.3;101000;;;;
2021/10/19 21:45:10;;;;;;;7.8;7.0;;;;;;;15.2;82.5;101000;;;;
2021/10/19 21:47:10;;;;;;;7.8;7.0;;;;;;;15.3;82.2;100990;;;;
2021/10/19 21:51:10;;;;;;;7.8;7.0;;;;;;;15.2;82.1;100990;;;;
2021/10/19 22:01:11;;;;;;;7.8;7.0;;;;;;;15.1;82.2;100980;;;;
2021/10/19 22:03:10;;;;;;;7.2;6.5;;;;;;;15.2;81.9;100980;;;;
2021/10/19 22:05:10;;;;;;;7.2;6.5;;;;;;;15.3;81.6;100980;;;;
2021/10/19 22:07:10;;;;;;;7.2;6.5;;;;;;;15.2;81.4;100980;;;;
2021/10/19 22:11:10;;;;;;;7.2;6.5;;;;;;;15.1;81.7;100970;;;;
2021/10/19 22:15:10;;;;;;;7.2;6.5;;;;;;;15.2;81.5;100970;;;;
2021/10/19 22:17:10;;;;;;;7.2;6.5;;;;;;;15.1;81.6;100970;;;;
2021/10/19 22:27:10;;;;;;;6.3;5.7;;;;;;;15.0;81.1;100950;;;;
2021/10/19 22:29:15;;;;;;;6.3;5.7;;;;;;;15.1;80.8;100950;;;;
2021/10/19 22:31:10;;;;;;;6.3;5.7;;;;;;;15.0;81.1;100950;;;;
2021/10/19 22:35:10;;;;;;;6.3;5.7;;;;;;;14.9;81.0;100940;;;;
2021/10/19 22:51:10;;;;;;;6.4;5.8;;;;;;;14.8;80.6;100920;;;;
2021/10/19 23:01:10;;;;;;;6.4;5.8;;;;;;;14.7;80.3;100910;;;;
2021/10/19 23:05:10;;;;;;;7.7;5.4;;;;;;;14.8;80.1;100910;;;;
2021/10/19 23:07:10;;;;;;;7.7;5.4;;;;;;;14.7;80.3;100900;;;;
2021/10/19 23:09:10;;;;;;;7.7;5.4;;;;;;;14.6;80.4;100900;;;;
2021/10/19 23:15:10;;;;;;;7.7;5.4;;;;;;;14.7;80.0;100880;;;;
2021/10/19 23:19:10;;;;;;;7.7;5.4;;;;;;;14.6;79.7;100880;;;;
2021/10/19 23:21:10;;;;;;;7.7;5.4;;;;;;;14.7;79.6;100870;;;;
2021/10/19 23:23:10;;;;;;;5.5;5.0;;;;;;;14.6;79.6;100870;;;;
2021/10/19 23:33:10;;;;;;;5.5;5.0;;;;;;;14.5;79.0;100850;;;;
2021/10/19 23:35:10;;;;;;;5.5;5.0;;;;;;;14.4;79.4;100850;;;;
2021/10/19 23:37:10;;;;;;;5.5;5.0;;;;;;;14.5;79.6;100840;;;;
2021/10/19 23:49:12;;;;;;;5.8;4.6;;;;;;;14.4;78.9;100840;;;;
2021/10/19 23:59:10;;;;;;;5.8;4.6;;;;;;;14.5;78.0;100840;;;;
